createdAt,value
2023-01-29T00:01:48.493Z,41.39
2023-01-29T00:04:19.653Z,41.75
2023-01-29T00:06:50.235Z,41.58
2023-01-29T00:09:20.738Z,41.16
2023-01-29T00:11:51.495Z,41.76
2023-01-29T00:14:22.534Z,41.21
2023-01-29T00:16:52.969Z,41.06
2023-01-29T00:19:23.271Z,41.67
2023-01-29T00:21:53.561Z,41.58
2023-01-29T00:24:24.665Z,41.96
2023-01-29T00:27:00.050Z,41.93
2023-01-29T00:29:30.440Z,41.43
2023-01-29T00:32:01.103Z,41.29
2023-01-29T00:34:31.007Z,40.74
2023-01-29T00:37:08.572Z,41.20
2023-01-29T00:39:47.532Z,41.28
2023-01-29T00:42:36.019Z,40.88
2023-01-29T00:45:08.038Z,40.89
2023-01-29T00:47:39.167Z,41.04
2023-01-29T00:50:09.916Z,41.25
2023-01-29T00:52:41.517Z,41.65
2023-01-29T00:55:12.360Z,41.90
2023-01-29T00:57:42.537Z,42.41
2023-01-29T01:00:16.981Z,42.90
2023-01-29T01:03:06.485Z,43.66
2023-01-29T01:05:38.808Z,44.28
2023-01-29T01:08:29.254Z,45.07
2023-01-29T01:11:05.615Z,45.12
2023-01-29T01:13:36.187Z,45.36
2023-01-29T01:16:13.092Z,45.26
2023-01-29T01:18:43.296Z,45.71
2023-01-29T01:21:13.592Z,45.18
2023-01-29T01:23:46.849Z,45.31
2023-01-29T01:26:16.971Z,45.63
2023-01-29T01:28:47.409Z,45.58
2023-01-29T01:31:17.953Z,46.06
2023-01-29T01:33:48.139Z,46.31
2023-01-29T01:36:18.422Z,46.31
2023-01-29T01:38:49.363Z,46.37
2023-01-29T01:41:21.911Z,46.99
2023-01-29T01:43:54.493Z,47.32
2023-01-29T01:46:25.395Z,47.98
2023-01-29T01:48:59.552Z,48.66
2023-01-29T01:51:31.754Z,48.92
2023-01-29T01:54:04.723Z,48.99
2023-01-29T01:56:40.449Z,49.35
2023-01-29T01:59:13.844Z,49.45
2023-01-29T02:01:49.737Z,49.70
2023-01-29T02:04:41.166Z,49.72
2023-01-29T02:07:31.767Z,49.76
2023-01-29T02:10:07.251Z,50.23
2023-01-29T02:12:38.377Z,50.38
2023-01-29T02:15:11.198Z,50.67
2023-01-29T02:17:41.909Z,50.52
2023-01-29T02:20:19.729Z,50.56
2023-01-29T02:23:11.327Z,50.31
2023-01-29T02:25:53.458Z,50.65
2023-01-29T02:28:33.226Z,50.69
2023-01-29T02:31:09.116Z,50.62
2023-01-29T02:33:45.787Z,50.61
2023-01-29T02:36:23.747Z,50.41
2023-01-29T02:39:00.718Z,50.22
2023-01-29T02:41:36.997Z,50.61
2023-01-29T02:44:10.287Z,50.36
2023-01-29T02:46:44.868Z,50.81
2023-01-29T02:49:18.858Z,50.62
2023-01-29T02:51:55.984Z,50.22
2023-01-29T02:54:32.868Z,50.70
2023-01-29T02:57:08.254Z,50.53
2023-01-29T02:59:43.025Z,50.13
2023-01-29T03:02:16.818Z,50.74
2023-01-29T03:04:50.893Z,50.57
2023-01-29T03:07:38.982Z,50.67
2023-01-29T03:10:15.554Z,50.92
2023-01-29T03:12:48.060Z,50.44
2023-01-29T03:15:24.934Z,50.56
2023-01-29T03:17:55.416Z,50.54
2023-01-29T03:20:31.776Z,51.01
2023-01-29T03:23:23.467Z,51.25
2023-01-29T03:26:13.343Z,51.04
2023-01-29T03:29:02.966Z,51.29
2023-01-29T03:31:52.070Z,51.19
2023-01-29T03:34:28.210Z,51.18
2023-01-29T03:37:00.594Z,51.12
2023-01-29T03:39:32.324Z,51.33
2023-01-29T03:42:09.979Z,51.47
2023-01-29T03:44:49.092Z,51.30
2023-01-29T03:47:23.479Z,51.45
2023-01-29T03:49:59.933Z,51.48
2023-01-29T03:52:41.586Z,51.72
2023-01-29T03:55:17.521Z,51.73
2023-01-29T03:57:54.177Z,51.50
2023-01-29T04:00:29.168Z,51.47
2023-01-29T04:03:03.902Z,52.05
2023-01-29T04:05:40.247Z,52.02
2023-01-29T04:08:15.055Z,52.23
2023-01-29T04:10:46.295Z,52.15
2023-01-29T04:13:18.342Z,52.04
2023-01-29T04:15:53.932Z,52.41
2023-01-29T04:18:24.681Z,52.09
2023-01-29T04:20:55.312Z,52.33
2023-01-29T04:23:27.088Z,52.17
2023-01-29T04:26:10.167Z,52.06
2023-01-29T04:28:51.001Z,52.24
2023-01-29T04:31:22.885Z,52.19
2023-01-29T04:34:01.583Z,52.23
2023-01-29T04:36:37.768Z,52.25
2023-01-29T04:39:13.995Z,51.98
2023-01-29T04:41:50.575Z,51.91
2023-01-29T04:44:27.372Z,51.74
2023-01-29T04:47:04.388Z,51.77
2023-01-29T04:49:38.015Z,51.30
2023-01-29T04:52:16.312Z,51.49
2023-01-29T04:54:54.913Z,51.80
2023-01-29T04:57:29.495Z,51.81
2023-01-29T05:00:04.495Z,51.27
2023-01-29T05:02:38.122Z,51.24
2023-01-29T05:05:09.843Z,51.03
2023-01-29T05:07:40.865Z,50.78
2023-01-29T05:10:14.921Z,50.74
2023-01-29T05:12:47.428Z,50.84
2023-01-29T05:15:21.193Z,50.39
2023-01-29T05:17:53.611Z,50.73
2023-01-29T05:20:23.948Z,49.82
2023-01-29T05:22:54.297Z,50.24
2023-01-29T05:25:29.206Z,49.88
2023-01-29T05:28:06.198Z,49.72
2023-01-29T05:30:38.973Z,49.52
2023-01-29T05:33:15.804Z,49.80
2023-01-29T05:35:44.992Z,49.28
2023-01-29T05:38:16.165Z,49.30
2023-01-29T05:40:46.433Z,49.30
2023-01-29T05:43:19.661Z,48.71
2023-01-29T05:45:55.932Z,48.91
2023-01-29T05:48:27.641Z,48.52
2023-01-29T05:51:03.238Z,48.67
2023-01-29T05:53:34.853Z,48.21
2023-01-29T05:56:06.347Z,48.16
2023-01-29T05:58:37.145Z,47.89
2023-01-29T06:01:14.959Z,47.63
2023-01-29T06:03:45.681Z,47.46
2023-01-29T06:06:16.427Z,47.15
2023-01-29T06:08:46.721Z,47.09
2023-01-29T06:11:18.105Z,47.25
2023-01-29T06:13:48.803Z,47.18
2023-01-29T06:16:17.809Z,46.60
2023-01-29T06:18:48.111Z,46.56
2023-01-29T06:21:20.051Z,46.71
2023-01-29T06:23:54.046Z,46.70
2023-01-29T06:26:25.113Z,46.43
2023-01-29T06:28:55.491Z,46.24
2023-01-29T06:31:37.945Z,46.09
2023-01-29T06:34:09.824Z,46.27
2023-01-29T06:36:41.500Z,45.70
2023-01-29T06:39:12.475Z,45.55
2023-01-29T06:41:42.733Z,45.46
2023-01-29T06:44:12.996Z,45.39
2023-01-29T06:46:43.417Z,45.31
2023-01-29T06:49:14.051Z,45.63
2023-01-29T06:51:45.070Z,44.99
2023-01-29T06:54:15.675Z,45.12
2023-01-29T06:56:46.408Z,45.02
2023-01-29T06:59:16.894Z,44.63
2023-01-29T07:01:47.677Z,44.81
2023-01-29T07:04:18.140Z,44.47
2023-01-29T07:06:48.828Z,44.14
2023-01-29T07:09:20.227Z,43.72
2023-01-29T07:11:51.026Z,44.07
2023-01-29T07:14:20.278Z,43.88
2023-01-29T07:16:51.011Z,43.53
2023-01-29T07:19:19.897Z,42.98
2023-01-29T07:21:50.776Z,42.34
2023-01-29T07:24:25.232Z,41.72
2023-01-29T07:26:55.673Z,41.00
2023-01-29T07:29:26.682Z,40.44
2023-01-29T07:31:57.183Z,39.72
2023-01-29T07:34:27.406Z,38.39
2023-01-29T07:36:57.692Z,36.50
2023-01-29T07:39:27.898Z,35.18
2023-01-29T07:41:58.909Z,34.18
2023-01-29T07:44:29.208Z,33.63
2023-01-29T07:46:59.534Z,33.26
2023-01-29T07:49:29.781Z,33.08
2023-01-29T07:52:00.492Z,32.14
2023-01-29T07:54:33.116Z,31.14
2023-01-29T07:57:03.300Z,30.57
2023-01-29T07:59:33.757Z,30.43
2023-01-29T08:02:02.862Z,30.31
2023-01-29T08:04:33.152Z,30.67
2023-01-29T08:07:04.614Z,30.71
2023-01-29T08:09:35.159Z,30.61
2023-01-29T08:12:05.866Z,30.49
2023-01-29T08:14:36.416Z,30.67
2023-01-29T08:17:06.599Z,30.75
2023-01-29T08:19:36.812Z,31.20
2023-01-29T08:22:07.589Z,31.19
2023-01-29T08:24:53.260Z,31.09
2023-01-29T08:27:24.537Z,31.14
2023-01-29T08:29:54.837Z,31.39
2023-01-29T08:32:25.054Z,31.68
2023-01-29T08:34:55.774Z,31.43
2023-01-29T08:37:26.194Z,31.78
2023-01-29T08:39:56.461Z,31.61
2023-01-29T08:42:26.607Z,31.51
2023-01-29T08:44:56.773Z,31.28
2023-01-29T08:47:28.610Z,31.38
2023-01-29T08:49:59.021Z,31.76
2023-01-29T08:52:29.322Z,31.80
2023-01-29T08:54:59.529Z,31.50
2023-01-29T08:57:29.631Z,31.48
2023-01-29T08:59:59.760Z,31.05
2023-01-29T09:02:30.378Z,31.16
2023-01-29T09:05:00.803Z,31.14
2023-01-29T09:07:30.453Z,30.98
2023-01-29T09:10:01.056Z,31.11
2023-01-29T09:12:30.144Z,31.45
2023-01-29T09:15:01.193Z,31.65
2023-01-29T09:17:31.329Z,31.95
2023-01-29T09:20:01.507Z,31.84
2023-01-29T09:22:34.441Z,31.97
2023-01-29T09:25:05.511Z,32.03
2023-01-29T09:27:35.976Z,32.04
2023-01-29T09:30:08.475Z,32.30
2023-01-29T09:32:54.910Z,32.25
2023-01-29T09:35:25.444Z,32.35
2023-01-29T09:37:58.810Z,32.42
2023-01-29T09:40:33.350Z,32.52
2023-01-29T09:43:05.475Z,32.85
2023-01-29T09:45:36.614Z,33.02
2023-01-29T09:48:11.103Z,33.23
2023-01-29T09:50:43.687Z,33.39
2023-01-29T09:53:18.946Z,33.41
2023-01-29T09:55:52.123Z,33.62
2023-01-29T09:58:29.695Z,33.98
2023-01-29T10:01:06.849Z,34.25
2023-01-29T10:06:08.860Z,35.02
2023-01-29T10:09:08.403Z,35.36
2023-01-29T10:11:47.131Z,35.30
2023-01-29T10:14:22.925Z,35.09
2023-01-29T10:17:04.403Z,35.30
2023-01-29T10:19:50.248Z,35.40
2023-01-29T10:22:54.364Z,35.59
2023-01-29T10:25:25.211Z,35.05
2023-01-29T10:27:57.746Z,34.85
2023-01-29T10:30:33.669Z,34.42
2023-01-29T10:33:05.868Z,34.70
2023-01-29T10:35:37.948Z,34.50
2023-01-29T10:38:19.633Z,34.22
2023-01-29T10:40:55.761Z,33.82
2023-01-29T10:43:32.857Z,34.03
2023-01-29T10:46:10.218Z,33.36
2023-01-29T10:48:47.742Z,33.28
2023-01-29T10:51:26.455Z,32.53
2023-01-29T10:54:05.941Z,31.82
2023-01-29T10:56:47.965Z,31.92
2023-01-29T10:59:31.395Z,31.38
2023-01-29T11:02:09.454Z,31.75
2023-01-29T11:04:42.801Z,31.68
2023-01-29T11:07:13.796Z,31.87
2023-01-29T11:09:47.052Z,31.89
2023-01-29T11:12:20.193Z,31.26
2023-01-29T11:14:56.590Z,31.15
2023-01-29T11:17:27.551Z,31.52
2023-01-29T11:19:58.300Z,32.02
2023-01-29T11:22:30.427Z,31.66
2023-01-29T11:25:16.273Z,32.29
2023-01-29T11:27:48.611Z,32.36
2023-01-29T11:30:22.434Z,32.61
2023-01-29T11:32:56.733Z,32.83
2023-01-29T11:35:30.123Z,33.08
2023-01-29T11:38:09.909Z,33.20
2023-01-29T11:40:54.671Z,33.28
2023-01-29T11:43:31.450Z,33.96
2023-01-29T11:46:05.600Z,34.01
2023-01-29T11:48:42.686Z,34.03
2023-01-29T11:51:22.912Z,34.39
2023-01-29T11:53:55.004Z,34.33
2023-01-29T11:56:30.003Z,34.29
2023-01-29T11:59:04.143Z,34.15
2023-01-29T12:01:37.857Z,34.14
2023-01-29T12:04:16.741Z,34.26
2023-01-29T12:06:50.260Z,34.49
2023-01-29T12:09:24.832Z,34.56
2023-01-29T12:11:55.611Z,34.48
2023-01-29T12:14:33.360Z,34.71
2023-01-29T12:17:06.706Z,34.31
2023-01-29T12:19:42.765Z,34.22
2023-01-29T12:22:18.220Z,33.88
2023-01-29T12:24:53.217Z,34.02
2023-01-29T12:27:30.626Z,33.68
2023-01-29T12:30:05.054Z,34.39
2023-01-29T12:32:42.410Z,34.41
2023-01-29T12:35:18.820Z,34.25
2023-01-29T12:37:54.966Z,34.22
2023-01-29T12:40:28.095Z,34.33
2023-01-29T12:43:03.370Z,34.45
2023-01-29T12:45:35.406Z,34.38
2023-01-29T12:48:08.730Z,34.40
2023-01-29T12:50:39.639Z,34.72
2023-01-29T12:53:11.307Z,35.08
2023-01-29T12:55:47.597Z,35.45
2023-01-29T12:58:22.073Z,35.96
2023-01-29T13:00:53.801Z,35.95
2023-01-29T13:03:28.294Z,36.22
2023-01-29T13:06:00.519Z,36.20
2023-01-29T13:08:33.736Z,36.38
2023-01-29T13:11:08.087Z,36.79
2023-01-29T13:13:42.300Z,37.06
2023-01-29T13:16:22.273Z,37.28
2023-01-29T13:18:55.666Z,37.27
2023-01-29T13:21:27.922Z,37.43
2023-01-29T13:24:00.693Z,37.55
2023-01-29T13:26:34.344Z,37.87
2023-01-29T13:29:07.673Z,38.38
2023-01-29T13:31:46.052Z,38.37
2023-01-29T13:34:17.924Z,38.65
2023-01-29T13:36:49.895Z,38.79
2023-01-29T13:39:25.000Z,38.94
2023-01-29T13:41:56.556Z,39.33
2023-01-29T13:44:29.108Z,39.62
2023-01-29T13:47:01.807Z,39.96
2023-01-29T13:49:35.695Z,40.20
2023-01-29T13:52:25.178Z,40.50
2023-01-29T13:55:03.984Z,40.36
2023-01-29T13:58:04.926Z,40.70
2023-01-29T14:01:00.984Z,40.54
2023-01-29T14:04:10.132Z,40.85
2023-01-29T14:06:57.492Z,40.78
2023-01-29T14:10:02.589Z,41.17
2023-01-29T14:12:53.452Z,40.86
2023-01-29T14:15:25.930Z,41.03
2023-01-29T14:18:18.474Z,41.19
2023-01-29T14:20:59.973Z,41.61
2023-01-29T14:23:42.366Z,41.78
2023-01-29T14:26:28.863Z,41.65
2023-01-29T14:29:05.853Z,41.95
2023-01-29T14:31:43.141Z,42.37
2023-01-29T14:34:24.677Z,42.11
2023-01-29T14:36:57.604Z,41.94
2023-01-29T14:39:42.267Z,42.54
2023-01-29T14:42:21.827Z,42.47
2023-01-29T14:45:07.906Z,42.61
2023-01-29T14:47:59.447Z,42.35
2023-01-29T14:50:52.460Z,42.79
2023-01-29T14:53:28.348Z,42.30
2023-01-29T14:56:02.621Z,42.53
2023-01-29T14:58:39.844Z,42.84
2023-01-29T15:01:20.522Z,42.47
2023-01-29T15:03:52.832Z,42.41
2023-01-29T15:06:29.722Z,42.33
2023-01-29T15:09:07.917Z,42.33
2023-01-29T15:11:45.113Z,42.35
2023-01-29T15:14:24.556Z,42.30
2023-01-29T15:17:01.441Z,42.22
2023-01-29T15:19:35.498Z,42.01
2023-01-29T15:22:08.438Z,41.88
2023-01-29T15:24:40.900Z,41.99
2023-01-29T15:27:16.224Z,42.21
2023-01-29T15:29:52.149Z,42.20
2023-01-29T15:32:29.839Z,42.24
2023-01-29T15:35:02.471Z,42.24
2023-01-29T15:37:34.634Z,42.05
2023-01-29T15:40:07.920Z,42.48
2023-01-29T15:42:48.127Z,42.21
2023-01-29T15:45:29.737Z,42.15
2023-01-29T15:48:04.048Z,41.91
2023-01-29T15:50:36.602Z,42.28
2023-01-29T15:53:10.306Z,42.14
2023-01-29T15:55:44.722Z,42.08
2023-01-29T15:58:22.030Z,41.77
2023-01-29T16:00:53.684Z,41.67
2023-01-29T16:03:25.338Z,41.98
2023-01-29T16:05:56.477Z,41.80
2023-01-29T16:08:28.466Z,41.50
2023-01-29T16:11:04.018Z,41.65
2023-01-29T16:13:36.189Z,41.93
2023-01-29T16:16:19.782Z,41.59
2023-01-29T16:18:59.832Z,41.36
2023-01-29T16:21:34.968Z,41.39
2023-01-29T16:24:09.475Z,41.35
2023-01-29T16:26:43.096Z,41.59
2023-01-29T16:29:14.889Z,41.68
2023-01-29T16:31:47.513Z,41.68
2023-01-29T16:34:23.753Z,41.33
2023-01-29T16:36:55.313Z,41.47
2023-01-29T16:39:27.446Z,41.29
2023-01-29T16:42:22.684Z,41.75
2023-01-29T16:44:58.258Z,41.68
2023-01-29T16:47:32.029Z,41.85
2023-01-29T16:50:22.036Z,41.81
2023-01-29T16:52:59.216Z,41.56
2023-01-29T16:55:36.181Z,41.64
2023-01-29T16:58:13.962Z,42.26
2023-01-29T17:00:47.253Z,42.01
2023-01-29T17:03:19.097Z,41.99
2023-01-29T17:05:51.346Z,41.40
2023-01-29T17:08:27.675Z,41.71
2023-01-29T17:10:57.906Z,41.83
2023-01-29T17:13:31.435Z,41.93
2023-01-29T17:16:03.752Z,41.94
2023-01-29T17:18:37.097Z,42.05
2023-01-29T17:21:08.321Z,42.16
2023-01-29T17:23:40.211Z,42.65
2023-01-29T17:26:13.525Z,43.63
2023-01-29T17:28:44.208Z,44.36
2023-01-29T17:31:15.424Z,44.78
2023-01-29T17:33:48.158Z,45.65
2023-01-29T17:36:19.488Z,46.65
2023-01-29T17:38:52.861Z,47.03
2023-01-29T17:41:27.587Z,47.51
2023-01-29T17:43:59.743Z,48.13
2023-01-29T17:46:31.517Z,48.89
2023-01-29T17:49:02.569Z,49.40
2023-01-29T17:51:33.176Z,50.25
2023-01-29T17:54:03.606Z,50.35
2023-01-29T17:56:34.033Z,50.55
2023-01-29T17:59:06.038Z,51.21
2023-01-29T18:01:39.942Z,51.46
2023-01-29T18:04:11.139Z,51.75
2023-01-29T18:06:46.225Z,51.98
2023-01-29T18:09:18.440Z,52.30
2023-01-29T18:11:54.042Z,52.61
2023-01-29T18:14:25.708Z,52.84
2023-01-29T18:16:57.406Z,53.28
2023-01-29T18:19:30.729Z,53.89
2023-01-29T18:22:05.925Z,53.91
2023-01-29T18:24:38.601Z,54.37
2023-01-29T18:27:14.510Z,54.21
2023-01-29T18:29:46.046Z,54.53
2023-01-29T18:32:17.749Z,54.63
2023-01-29T18:34:54.356Z,55.07
2023-01-29T18:37:26.149Z,55.04
2023-01-29T18:39:58.967Z,55.21
2023-01-29T18:42:35.785Z,55.51
2023-01-29T18:45:09.709Z,55.56
2023-01-29T18:47:42.863Z,55.57
2023-01-29T18:50:14.141Z,55.45
2023-01-29T18:52:43.574Z,55.55
2023-01-29T18:55:14.308Z,55.58
2023-01-29T18:58:27.996Z,55.81
2023-01-29T19:00:38.546Z,55.42
2023-01-29T19:03:10.272Z,55.82
2023-01-29T19:05:43.106Z,55.68
2023-01-29T19:08:13.745Z,55.67
2023-01-29T19:10:46.978Z,55.57
2023-01-29T19:13:22.924Z,55.81
2023-01-29T19:15:56.681Z,55.52
2023-01-29T19:18:32.399Z,55.35
2023-01-29T19:21:10.415Z,54.99
2023-01-29T19:23:42.221Z,55.26
2023-01-29T19:26:36.508Z,55.28
2023-01-29T19:29:09.453Z,55.43
2023-01-29T19:31:39.934Z,55.67
2023-01-29T19:34:11.485Z,55.73
2023-01-29T19:36:42.934Z,55.92
2023-01-29T19:39:23.482Z,56.00
2023-01-29T19:42:10.317Z,56.31
2023-01-29T19:45:00.377Z,56.04
2023-01-29T19:47:49.548Z,56.20
2023-01-29T19:50:22.001Z,55.88
2023-01-29T19:52:53.102Z,55.67
2023-01-29T19:55:24.212Z,56.13
2023-01-29T19:57:56.814Z,55.88
2023-01-29T20:00:33.405Z,55.57
2023-01-29T20:03:05.009Z,55.22
2023-01-29T20:05:43.953Z,55.32
2023-01-29T20:08:18.044Z,55.38
2023-01-29T20:10:49.484Z,55.85
2023-01-29T20:13:19.696Z,55.59
2023-01-29T20:15:53.062Z,55.37
2023-01-29T20:18:23.489Z,55.34
2023-01-29T20:20:54.042Z,55.43
2023-01-29T20:23:36.513Z,55.41
2023-01-29T20:26:09.400Z,55.34
2023-01-29T20:28:40.065Z,55.37
2023-01-29T20:31:12.894Z,55.20
2023-01-29T20:33:54.753Z,55.26
2023-01-29T20:36:27.455Z,55.24
2023-01-29T20:38:57.825Z,55.37
2023-01-29T20:41:35.139Z,55.15
2023-01-29T20:44:09.325Z,55.67
2023-01-29T20:46:40.650Z,55.40
2023-01-29T20:49:12.191Z,55.39
2023-01-29T20:51:43.103Z,55.06
2023-01-29T20:54:14.277Z,55.43
2023-01-29T20:56:52.719Z,55.54
2023-01-29T20:59:28.697Z,55.17
2023-01-29T21:02:00.493Z,54.85
2023-01-29T21:04:31.156Z,55.44
2023-01-29T21:07:02.468Z,55.18
2023-01-29T21:09:33.001Z,55.12
2023-01-29T21:12:05.147Z,55.60
2023-01-29T21:14:36.037Z,55.45
2023-01-29T21:17:06.014Z,55.59
2023-01-29T21:19:39.075Z,55.80
2023-01-29T21:22:10.374Z,55.59
2023-01-29T21:24:42.329Z,55.27
2023-01-29T21:27:19.560Z,55.20
2023-01-29T21:29:49.852Z,55.21
2023-01-29T21:32:20.231Z,55.10
2023-01-29T21:34:52.554Z,55.45
2023-01-29T21:37:22.933Z,55.39
2023-01-29T21:39:53.987Z,55.36
2023-01-29T21:42:42.028Z,55.32
2023-01-29T21:45:12.905Z,55.73
2023-01-29T21:47:43.271Z,55.09
2023-01-29T21:50:13.733Z,55.56
2023-01-29T21:52:44.119Z,55.36
2023-01-29T21:55:18.002Z,55.52
2023-01-29T21:57:49.383Z,55.32
2023-01-29T22:00:23.670Z,55.70
2023-01-29T22:02:54.160Z,55.48
2023-01-29T22:05:24.676Z,55.36
2023-01-29T22:07:54.905Z,55.19
2023-01-29T22:10:25.066Z,55.33
2023-01-29T22:12:55.290Z,55.31
2023-01-29T22:15:26.411Z,55.41
2023-01-29T22:17:56.969Z,55.31
2023-01-29T22:20:30.499Z,55.54
2023-01-29T22:23:01.503Z,55.79
2023-01-29T22:25:31.380Z,56.23
2023-01-29T22:28:02.462Z,56.23
2023-01-29T22:30:33.133Z,56.32
2023-01-29T22:33:03.515Z,56.51
2023-01-29T22:35:34.151Z,56.87
2023-01-29T22:38:04.757Z,56.80
2023-01-29T22:40:35.377Z,57.07
2023-01-29T22:43:05.917Z,56.77
2023-01-29T22:45:36.468Z,57.51
2023-01-29T22:48:08.129Z,57.38
2023-01-29T22:50:38.667Z,57.41
2023-01-29T22:53:09.542Z,57.40
2023-01-29T22:55:40.810Z,57.90
2023-01-29T22:58:11.081Z,58.09
2023-01-29T23:00:41.254Z,58.06
2023-01-29T23:03:11.828Z,57.49
2023-01-29T23:05:42.461Z,57.82
2023-01-29T23:08:12.838Z,58.06
2023-01-29T23:10:43.123Z,57.67
2023-01-29T23:13:13.360Z,58.26
2023-01-29T23:15:43.689Z,57.81
2023-01-29T23:18:14.148Z,57.87
2023-01-29T23:20:44.762Z,57.39
2023-01-29T23:23:15.314Z,57.04
2023-01-29T23:26:03.159Z,56.86
2023-01-29T23:28:33.440Z,56.97
2023-01-29T23:31:03.854Z,57.18
2023-01-29T23:33:34.065Z,56.89
2023-01-29T23:36:04.638Z,57.12
2023-01-29T23:38:34.803Z,56.86
2023-01-29T23:41:05.573Z,56.87
2023-01-29T23:43:36.440Z,57.38
2023-01-29T23:46:07.209Z,57.24
2023-01-29T23:48:37.499Z,56.44
2023-01-29T23:51:08.315Z,55.74
2023-01-29T23:53:38.524Z,55.64
2023-01-29T23:56:10.649Z,54.92
2023-01-29T23:58:41.169Z,54.62
